Terminal Aerodrome Forecast
Issued by NWS

Home | Current Version | Previous Version | Text Only | Print | Product List | Glossary On
Versions: 1 2 3 4 5 6 7 8 9 10 11 12
000
FTUS46 KPDT 210500
TAFDLS
TAF
KDLS 210524Z 2106/2206 31006KT P6SM SKC
     FM211700 32015G25KT P6SM SCT250
     FM212100 32020G30KT P6SM SCT050 SCT250=

USA.gov is the U.S. government's official web portal to all federal, state and local government web resources and services.